Etusivu
METAR-TAF:

METAR-TAF

Lentoasemat :

Amman, Jordania

Leveyspiiri: 31-59N, Pituuspiiri: 035-59E, korkeus merenpinnasta: 767 m

Tämänhetkinen sää

Tämä raportti tehtiin 30 minuuttia sitten, kello 17.00 UTC
Tuuli 5 kn idästä
Lämpötila 20°C
Kosteus 24%
Ilmanpaine 1017 hPa
Näkyvyys: 5000 m
usvaa

METAR: OJAM 171700Z 09005KT 5000 HZ NSC 20/M01 Q1017 NOSIG

Aika: 19:30 (17:30 UTC)

Sääennuste

Tämä raportti tehtiin 6 tuntia ja 40 minuuttia sitten, kello 10.50 UTC
Ennuste voimassa 17. päivästä klo 12 UTC - 18. päivään klo 18 UTC
Tuuli 6 kn idästä/kaakosta
Näkyvyys: 5000 m
usvaa
Ajoittain
18. päivästä klo 02 UTC - 18. päivään klo 06 UTC
Tuuli 2 kn eri suunnista
Näkyvyys: 3000 m
savua

TAF: OJAM 171050Z 1712/1818 12006KT 5000 HZ NSC TEMPO 1802/1806 VRB02KT 3000 FU

Säähavainnot ja -ennusteet yli 4000 lentoasemalta (METAR- ja TAF-raportit).

Käytössä olevat sääasemat on merkitty karttaan keltaisilla ja punaisilla pisteillä.

Aseta hiiri pisteen päälle nähdäksesi sääaseman nimen.

Klikkaa sitten nähdäksesi säähavainnot ja -ennusteet.

Kartan vaihtaminen: klikkaa mustalla rastilla varustettuja vihreitä pisteitä, niin voit zoomata sisään; viivalla varustettua vihreää pistettä, niin voit zoomata ulos tai vihreitä nuolia, niin pääset viereisille kartoille.


METAR-TAF: